createdAt,value
2022-09-24T00:01:36.497Z,95.70
2022-09-24T00:04:06.319Z,95.70
2022-09-24T00:06:38.970Z,95.70
2022-09-24T00:09:05.717Z,95.70
2022-09-24T00:11:35.507Z,95.70
2022-09-24T00:14:02.306Z,95.70
2022-09-24T00:16:33.758Z,95.70
2022-09-24T00:19:01.761Z,95.70
2022-09-24T00:21:30.961Z,95.70
2022-09-24T00:24:00.189Z,95.70
2022-09-24T00:26:46.072Z,95.70
2022-09-24T00:29:16.719Z,95.70
2022-09-24T00:31:43.513Z,95.70
2022-09-24T00:34:10.801Z,95.70
2022-09-24T00:36:37.895Z,95.70
2022-09-24T00:39:05.627Z,95.70
2022-09-24T00:41:36.633Z,95.70
2022-09-24T00:44:41.241Z,95.70
2022-09-24T00:47:18.649Z,95.70
2022-09-24T00:49:48.033Z,95.70
2022-09-24T00:52:15.303Z,95.70
2022-09-24T00:54:43.124Z,95.70
2022-09-24T00:57:10.015Z,95.70
2022-09-24T00:59:36.821Z,95.70
2022-09-24T01:02:04.774Z,95.70
2022-09-24T01:04:31.795Z,95.70
2022-09-24T01:06:59.123Z,95.70
2022-09-24T01:09:27.365Z,95.70
2022-09-24T01:12:21.979Z,95.70
2022-09-24T01:15:11.923Z,95.70
2022-09-24T01:18:02.458Z,95.70
2022-09-24T01:20:34.988Z,95.70
2022-09-24T01:23:36.692Z,95.70
2022-09-24T01:26:26.227Z,95.70
2022-09-24T01:29:21.775Z,95.70
2022-09-24T01:32:13.639Z,95.70
2022-09-24T01:34:45.113Z,95.70
2022-09-24T01:37:14.719Z,95.70
2022-09-24T01:39:42.605Z,95.70
2022-09-24T01:42:10.971Z,95.70
2022-09-24T01:44:39.738Z,95.70
2022-09-24T01:47:07.367Z,95.70
2022-09-24T01:49:34.122Z,95.70
2022-09-24T01:52:03.462Z,95.70
2022-09-24T01:54:41.242Z,95.70
2022-09-24T01:57:13.431Z,95.70
2022-09-24T02:00:06.351Z,95.70
2022-09-24T02:02:50.102Z,95.70
2022-09-24T02:05:19.758Z,95.70
2022-09-24T02:07:58.396Z,95.70
2022-09-24T02:10:27.076Z,95.70
2022-09-24T02:12:58.363Z,95.70
2022-09-24T02:15:37.322Z,95.70
2022-09-24T02:18:08.043Z,95.70
2022-09-24T02:20:36.015Z,95.70
2022-09-24T02:23:03.923Z,95.70
2022-09-24T02:25:35.227Z,95.70
2022-09-24T02:28:03.196Z,95.70
2022-09-24T02:30:34.238Z,95.70
2022-09-24T02:33:01.094Z,95.70
2022-09-24T02:35:27.812Z,95.70
2022-09-24T02:37:54.522Z,95.70
2022-09-24T02:40:21.471Z,95.70
2022-09-24T02:42:50.146Z,95.70
2022-09-24T02:45:17.147Z,95.70
2022-09-24T02:47:43.838Z,95.70
2022-09-24T02:50:10.599Z,95.70
2022-09-24T02:52:37.397Z,95.70
2022-09-24T02:55:04.950Z,95.70
2022-09-24T02:57:31.667Z,95.70
2022-09-24T02:59:58.388Z,95.70
2022-09-24T03:02:25.207Z,95.70
2022-09-24T03:04:51.982Z,95.70
2022-09-24T03:07:18.769Z,95.70
2022-09-24T03:09:45.516Z,95.70
2022-09-24T03:12:12.682Z,95.70
2022-09-24T03:14:39.483Z,95.70
2022-09-24T03:17:06.181Z,95.70
2022-09-24T03:19:32.880Z,95.70
2022-09-24T03:21:59.582Z,95.70
2022-09-24T03:24:26.376Z,95.70
2022-09-24T03:26:53.121Z,95.70
2022-09-24T03:29:39.795Z,95.70
2022-09-24T03:32:06.478Z,95.70
2022-09-24T03:34:33.182Z,95.70
2022-09-24T03:36:59.881Z,95.70
2022-09-24T03:39:26.618Z,95.70
2022-09-24T03:41:53.325Z,95.70
2022-09-24T03:44:20.035Z,95.70
2022-09-24T03:46:47.106Z,95.70
2022-09-24T03:49:13.860Z,95.70
2022-09-24T03:51:40.624Z,95.70
2022-09-24T03:54:07.490Z,95.70
2022-09-24T03:56:34.271Z,95.70
2022-09-24T03:59:00.995Z,95.70
2022-09-24T04:01:31.233Z,95.70
2022-09-24T04:03:58.179Z,95.70
2022-09-24T04:06:27.009Z,95.70
2022-09-24T04:08:53.845Z,95.70
2022-09-24T04:11:20.592Z,95.70
2022-09-24T04:13:47.300Z,95.70
2022-09-24T04:16:14.087Z,95.70
2022-09-24T04:18:40.802Z,95.70
2022-09-24T04:21:07.645Z,95.70
2022-09-24T04:23:34.405Z,95.70
2022-09-24T04:26:02.226Z,95.70
2022-09-24T04:28:30.499Z,95.70
2022-09-24T04:30:57.926Z,95.70
2022-09-24T04:33:24.971Z,95.70
2022-09-24T04:35:51.662Z,95.70
2022-09-24T04:38:19.621Z,95.70
2022-09-24T04:40:46.798Z,95.70
2022-09-24T04:43:13.736Z,95.70
2022-09-24T04:45:44.150Z,95.70
2022-09-24T04:48:11.290Z,95.70
2022-09-24T04:50:43.278Z,95.70
2022-09-24T04:53:12.375Z,95.70
2022-09-24T04:55:39.497Z,95.70
2022-09-24T04:58:06.272Z,95.70
2022-09-24T05:00:33.538Z,95.70
2022-09-24T05:03:03.573Z,95.70
2022-09-24T05:05:32.175Z,95.70
2022-09-24T05:07:59.150Z,95.70
2022-09-24T05:10:26.575Z,95.70
2022-09-24T05:12:53.578Z,95.70
2022-09-24T05:15:21.681Z,95.70
2022-09-24T05:17:48.457Z,95.70
2022-09-24T05:20:16.882Z,95.70
2022-09-24T05:22:44.910Z,95.70
2022-09-24T05:25:12.567Z,95.70
2022-09-24T05:27:47.504Z,95.70
2022-09-24T05:30:15.161Z,95.70
2022-09-24T05:32:42.302Z,95.70
2022-09-24T05:35:09.719Z,95.70
2022-09-24T05:37:37.796Z,95.70
2022-09-24T05:40:26.618Z,95.70
2022-09-24T05:43:00.003Z,95.70
2022-09-24T05:45:26.711Z,95.70
2022-09-24T05:47:53.524Z,95.70
2022-09-24T05:50:20.788Z,95.70
2022-09-24T05:52:47.499Z,95.70
2022-09-24T05:55:14.320Z,95.70
2022-09-24T05:57:41.103Z,95.70
2022-09-24T06:00:08.164Z,95.70
2022-09-24T06:02:35.084Z,95.70
2022-09-24T06:05:01.912Z,95.70
2022-09-24T06:07:28.614Z,95.70
2022-09-24T06:09:55.403Z,95.70
2022-09-24T06:12:23.546Z,95.70
2022-09-24T06:14:50.255Z,95.70
2022-09-24T06:17:16.938Z,95.70
2022-09-24T06:19:43.650Z,95.70
2022-09-24T06:22:10.410Z,95.70
2022-09-24T06:24:37.160Z,95.70
2022-09-24T06:27:04.245Z,95.70
2022-09-24T06:29:31.543Z,95.70
2022-09-24T06:31:58.258Z,95.70
2022-09-24T06:34:24.958Z,95.70
2022-09-24T06:36:55.080Z,95.70
2022-09-24T06:39:23.781Z,95.70
2022-09-24T06:41:51.460Z,95.70
2022-09-24T06:44:19.215Z,95.70
2022-09-24T06:46:46.117Z,95.70
2022-09-24T06:49:12.958Z,95.70
2022-09-24T06:51:39.929Z,95.70
2022-09-24T06:54:06.626Z,95.70
2022-09-24T06:56:33.366Z,95.70
2022-09-24T06:59:00.129Z,95.70
2022-09-24T07:01:26.897Z,95.70
2022-09-24T07:03:53.964Z,95.70
2022-09-24T07:06:20.753Z,95.70
2022-09-24T07:08:51.240Z,95.70
2022-09-24T07:11:17.974Z,95.70
2022-09-24T07:13:44.730Z,95.70
2022-09-24T07:16:11.463Z,95.70
2022-09-24T07:18:38.693Z,95.70
2022-09-24T07:21:05.603Z,95.70
2022-09-24T07:23:32.340Z,95.70
2022-09-24T07:25:59.154Z,95.70
2022-09-24T07:28:26.066Z,95.70
2022-09-24T07:30:59.707Z,95.70
2022-09-24T07:33:26.541Z,95.70
2022-09-24T07:35:53.243Z,95.70
2022-09-24T07:38:20.046Z,95.70
2022-09-24T07:40:46.838Z,95.70
2022-09-24T07:43:14.745Z,95.70
2022-09-24T07:45:42.531Z,95.70
2022-09-24T07:48:10.215Z,95.70
2022-09-24T07:50:41.392Z,95.70
2022-09-24T07:53:12.618Z,95.70
2022-09-24T07:55:40.957Z,95.70
2022-09-24T07:58:10.965Z,95.70
2022-09-24T08:00:38.736Z,95.70
2022-09-24T08:03:05.903Z,95.70
2022-09-24T08:05:35.402Z,95.70
2022-09-24T08:08:02.122Z,95.70
2022-09-24T08:10:29.033Z,95.70
2022-09-24T08:12:58.875Z,95.70
2022-09-24T08:15:25.942Z,95.70
2022-09-24T08:17:53.046Z,95.70
2022-09-24T08:20:21.009Z,95.70
2022-09-24T08:22:47.739Z,95.70
2022-09-24T08:25:14.589Z,95.70
2022-09-24T08:27:41.340Z,95.70
2022-09-24T08:30:08.772Z,95.70
2022-09-24T08:32:35.551Z,95.70
2022-09-24T08:35:02.293Z,95.70
2022-09-24T08:37:29.167Z,95.70
2022-09-24T08:39:56.065Z,95.70
2022-09-24T08:42:34.869Z,95.70
2022-09-24T08:45:21.061Z,95.70
2022-09-24T08:47:52.930Z,95.70
2022-09-24T08:50:27.133Z,95.70
2022-09-24T08:53:18.529Z,95.70
2022-09-24T08:55:55.650Z,95.70
2022-09-24T08:58:45.931Z,95.70
2022-09-24T09:01:31.901Z,95.70
2022-09-24T09:04:05.082Z,95.70
2022-09-24T09:06:58.864Z,95.70
2022-09-24T09:09:41.446Z,95.70
2022-09-24T09:12:17.682Z,95.50
2022-09-24T09:15:14.405Z,94.80
2022-09-24T09:17:50.326Z,94.60
2022-09-24T09:20:29.672Z,94.30
2022-09-24T09:22:57.545Z,94.20
2022-09-24T09:25:28.507Z,93.90
2022-09-24T09:28:04.913Z,93.90
2022-09-24T09:30:43.374Z,93.90
2022-09-24T09:33:38.402Z,93.70
2022-09-24T09:36:30.794Z,93.50
2022-09-24T09:39:23.130Z,93.10
2022-09-24T09:41:52.735Z,93.30
2022-09-24T09:44:26.286Z,93.00
2022-09-24T09:47:08.215Z,92.70
2022-09-24T09:49:38.510Z,92.50
2022-09-24T09:52:14.952Z,92.40
2022-09-24T09:54:43.343Z,92.00
2022-09-24T09:57:18.043Z,91.90
2022-09-24T09:59:53.700Z,91.80
2022-09-24T10:02:33.894Z,92.10
2022-09-24T10:05:21.030Z,92.20
2022-09-24T10:07:50.238Z,92.00
2022-09-24T10:10:19.496Z,91.70
2022-09-24T10:12:46.476Z,91.40
2022-09-24T10:15:21.799Z,91.40
2022-09-24T10:17:54.382Z,91.10
2022-09-24T10:20:27.642Z,91.00
2022-09-24T10:23:03.364Z,90.80
2022-09-24T10:25:31.657Z,90.50
2022-09-24T10:28:24.799Z,91.00
2022-09-24T10:30:56.856Z,91.20
2022-09-24T10:33:26.450Z,91.60
2022-09-24T10:36:10.817Z,92.00
2022-09-24T10:38:38.773Z,92.00
2022-09-24T10:41:35.892Z,92.10
2022-09-24T10:44:11.777Z,92.10
2022-09-24T10:47:08.115Z,92.50
2022-09-24T10:49:47.676Z,93.00
2022-09-24T10:52:25.385Z,93.00
2022-09-24T10:55:32.263Z,93.30
2022-09-24T10:58:16.418Z,93.50
2022-09-24T11:01:00.754Z,93.60
2022-09-24T11:03:50.270Z,93.40
2022-09-24T11:06:28.903Z,93.40
2022-09-24T11:09:01.588Z,93.60
2022-09-24T11:11:28.925Z,93.60
2022-09-24T11:14:04.555Z,93.70
2022-09-24T11:17:03.184Z,93.40
2022-09-24T11:19:53.367Z,93.10
2022-09-24T11:22:41.428Z,92.90
2022-09-24T11:25:38.708Z,93.10
2022-09-24T11:28:35.907Z,93.10
2022-09-24T11:31:35.445Z,93.40
2022-09-24T11:34:05.719Z,93.70
2022-09-24T11:36:42.140Z,93.70
2022-09-24T11:39:37.671Z,93.20
2022-09-24T11:42:30.288Z,93.20
2022-09-24T11:45:00.802Z,93.40
2022-09-24T11:47:45.109Z,93.70
2022-09-24T11:50:15.464Z,93.60
2022-09-24T11:52:52.653Z,93.10
2022-09-24T11:55:34.210Z,92.70
2022-09-24T11:58:25.373Z,92.90
2022-09-24T12:01:16.778Z,92.80
2022-09-24T12:04:16.717Z,93.00
2022-09-24T12:06:52.242Z,92.70
2022-09-24T12:09:31.021Z,92.00
2022-09-24T12:12:03.669Z,92.00
2022-09-24T12:14:37.337Z,91.80
2022-09-24T12:17:07.459Z,91.70
2022-09-24T12:19:51.200Z,91.80
2022-09-24T12:22:19.667Z,91.70
2022-09-24T12:24:53.983Z,91.60
2022-09-24T12:27:36.540Z,91.90
2022-09-24T12:30:43.729Z,92.10
2022-09-24T12:33:22.480Z,92.20
2022-09-24T12:36:02.255Z,92.30
2022-09-24T12:38:31.001Z,92.40
2022-09-24T12:41:20.749Z,92.20
2022-09-24T12:44:02.910Z,92.50
2022-09-24T12:46:46.869Z,92.70
2022-09-24T12:49:35.674Z,92.90
2022-09-24T12:52:16.452Z,92.70
2022-09-24T12:54:44.194Z,93.10
2022-09-24T12:57:24.937Z,93.40
2022-09-24T13:00:04.902Z,93.60
2022-09-24T13:02:52.787Z,93.70
2022-09-24T13:05:22.618Z,93.80
2022-09-24T13:08:11.603Z,94.00
2022-09-24T13:10:38.575Z,93.90
2022-09-24T13:13:29.642Z,94.10
2022-09-24T13:16:04.856Z,94.30
2022-09-24T13:18:35.767Z,94.30
2022-09-24T13:21:08.239Z,94.50
2022-09-24T13:23:38.365Z,94.70
2022-09-24T13:26:09.313Z,94.80
2022-09-24T13:28:48.600Z,94.80
2022-09-24T13:31:21.861Z,95.00
2022-09-24T13:33:51.813Z,95.20
2022-09-24T13:36:25.815Z,95.20
2022-09-24T13:39:23.061Z,95.50
2022-09-24T13:42:14.060Z,95.60
2022-09-24T13:45:09.725Z,95.70
2022-09-24T13:47:42.635Z,95.70
2022-09-24T13:50:18.113Z,95.70
2022-09-24T13:52:48.866Z,95.70
2022-09-24T13:55:22.862Z,95.70
2022-09-24T13:57:49.777Z,95.70
2022-09-24T14:00:19.772Z,95.70
2022-09-24T14:02:58.671Z,95.70
2022-09-24T14:05:26.230Z,95.70
2022-09-24T14:07:59.417Z,95.70
2022-09-24T14:10:26.510Z,95.70
2022-09-24T14:13:21.751Z,95.70
2022-09-24T14:15:56.328Z,95.70
2022-09-24T14:18:24.039Z,95.70
2022-09-24T14:21:39.040Z,95.70
2022-09-24T14:24:16.823Z,95.70
2022-09-24T14:26:48.560Z,95.70
2022-09-24T14:29:22.562Z,95.70
2022-09-24T14:31:51.889Z,95.70
2022-09-24T14:34:34.200Z,95.70
2022-09-24T14:37:10.391Z,95.70
2022-09-24T14:39:43.164Z,95.70
2022-09-24T14:42:21.649Z,95.70
2022-09-24T14:44:49.009Z,95.70
2022-09-24T14:47:30.814Z,95.70
2022-09-24T14:49:57.703Z,95.70
2022-09-24T14:52:33.109Z,95.70
2022-09-24T14:55:20.715Z,95.70
2022-09-24T14:57:51.753Z,95.70
2022-09-24T15:00:26.505Z,95.70
2022-09-24T15:03:17.444Z,95.70
2022-09-24T15:05:46.112Z,95.70
2022-09-24T15:08:22.297Z,95.70
2022-09-24T15:11:08.134Z,95.70
2022-09-24T15:13:36.745Z,95.70
2022-09-24T15:16:05.842Z,95.70
2022-09-24T15:18:35.373Z,95.70
2022-09-24T15:21:06.264Z,95.70
2022-09-24T15:23:33.194Z,95.70
2022-09-24T15:25:59.986Z,95.70
2022-09-24T15:28:29.093Z,95.70
2022-09-24T15:30:56.838Z,95.70
2022-09-24T15:33:23.847Z,95.70
2022-09-24T15:35:50.717Z,95.70
2022-09-24T15:38:18.931Z,95.70
2022-09-24T15:40:51.347Z,95.70
2022-09-24T15:43:23.390Z,95.70
2022-09-24T15:45:50.954Z,95.70
2022-09-24T15:48:17.846Z,95.70
2022-09-24T15:50:46.327Z,95.70
2022-09-24T15:53:26.096Z,95.70
2022-09-24T15:55:55.252Z,95.70
2022-09-24T15:58:23.105Z,95.70
2022-09-24T16:00:50.343Z,95.70
2022-09-24T16:03:27.869Z,95.70
2022-09-24T16:05:55.182Z,95.70
2022-09-24T16:08:22.312Z,95.70
2022-09-24T16:10:49.578Z,95.70
2022-09-24T16:13:17.378Z,95.70
2022-09-24T16:15:44.115Z,95.70
2022-09-24T16:18:15.970Z,95.70
2022-09-24T16:20:43.261Z,95.70
2022-09-24T16:23:14.943Z,95.70
2022-09-24T16:25:56.350Z,95.70
2022-09-24T16:28:24.330Z,95.70
2022-09-24T16:30:51.258Z,95.70
2022-09-24T16:33:18.132Z,95.70
2022-09-24T16:35:45.090Z,95.70
2022-09-24T16:38:11.957Z,95.70
2022-09-24T16:40:38.838Z,95.70
2022-09-24T16:43:05.597Z,95.70
2022-09-24T16:45:32.776Z,95.70
2022-09-24T16:47:59.902Z,95.70
2022-09-24T16:50:26.937Z,95.70
2022-09-24T16:52:55.336Z,95.70
2022-09-24T16:55:26.276Z,95.70
2022-09-24T16:57:54.308Z,95.70
2022-09-24T17:00:21.050Z,95.70
2022-09-24T17:02:47.906Z,95.70
2022-09-24T17:05:14.771Z,95.70
2022-09-24T17:07:41.543Z,95.70
2022-09-24T17:10:13.594Z,95.70
2022-09-24T17:12:48.414Z,95.70
2022-09-24T17:15:19.229Z,95.70
2022-09-24T17:17:50.214Z,95.70
2022-09-24T17:20:18.698Z,95.70
2022-09-24T17:22:47.412Z,95.70
2022-09-24T17:25:14.210Z,95.70
2022-09-24T17:27:41.021Z,95.70
2022-09-24T17:30:09.226Z,95.70
2022-09-24T17:32:35.937Z,95.70
2022-09-24T17:35:02.648Z,95.70
2022-09-24T17:37:29.474Z,95.70
2022-09-24T17:39:57.367Z,95.70
2022-09-24T17:42:24.686Z,95.70
2022-09-24T17:44:51.419Z,95.70
2022-09-24T17:47:18.175Z,95.70
2022-09-24T17:49:45.132Z,95.70
2022-09-24T17:52:13.430Z,95.70
2022-09-24T17:54:40.249Z,95.70
2022-09-24T17:57:07.235Z,95.70
2022-09-24T17:59:34.016Z,95.70
2022-09-24T18:02:00.817Z,95.70
2022-09-24T18:04:31.454Z,95.70
2022-09-24T18:06:58.152Z,95.70
2022-09-24T18:09:24.881Z,95.70
2022-09-24T18:11:52.453Z,95.70
2022-09-24T18:14:22.460Z,95.70
2022-09-24T18:16:50.191Z,95.70
2022-09-24T18:19:17.632Z,95.70
2022-09-24T18:21:45.761Z,95.70
2022-09-24T18:24:12.668Z,95.70
2022-09-24T18:26:43.002Z,95.70
2022-09-24T18:29:15.673Z,95.70
2022-09-24T18:31:43.101Z,95.70
2022-09-24T18:34:12.964Z,95.70
2022-09-24T18:36:40.751Z,95.70
2022-09-24T18:39:13.407Z,95.70
2022-09-24T18:41:41.162Z,95.70
2022-09-24T18:44:08.044Z,95.70
2022-09-24T18:46:35.276Z,95.70
2022-09-24T18:49:02.435Z,95.70
2022-09-24T18:51:31.724Z,95.70
2022-09-24T18:54:04.284Z,95.70
2022-09-24T18:56:31.614Z,95.70
2022-09-24T18:59:08.503Z,95.70
2022-09-24T19:01:37.123Z,95.70
2022-09-24T19:04:04.098Z,95.70
2022-09-24T19:06:31.742Z,95.70
2022-09-24T19:08:58.444Z,95.70
2022-09-24T19:11:25.181Z,95.70
2022-09-24T19:13:53.804Z,95.70
2022-09-24T19:16:23.597Z,95.70
2022-09-24T19:18:51.879Z,95.70
2022-09-24T19:21:19.271Z,95.70
2022-09-24T19:23:48.907Z,95.70
2022-09-24T19:26:18.561Z,95.70
2022-09-24T19:28:46.324Z,95.70
2022-09-24T19:31:26.951Z,95.70
2022-09-24T19:33:54.321Z,95.70
2022-09-24T19:36:22.236Z,95.70
2022-09-24T19:38:50.111Z,95.70
2022-09-24T19:41:21.293Z,95.70
2022-09-24T19:43:50.804Z,95.70
2022-09-24T19:46:19.244Z,95.70
2022-09-24T19:48:48.809Z,95.70
2022-09-24T19:51:29.971Z,95.70
2022-09-24T19:54:01.649Z,95.70
2022-09-24T19:56:29.556Z,95.70
2022-09-24T19:58:57.696Z,95.70
2022-09-24T20:01:30.686Z,95.70
2022-09-24T20:03:59.015Z,95.70
2022-09-24T20:06:29.046Z,95.70
2022-09-24T20:08:57.068Z,95.70
2022-09-24T20:11:24.755Z,95.70
2022-09-24T20:13:53.180Z,95.70
2022-09-24T20:16:22.335Z,95.70
2022-09-24T20:18:50.425Z,95.70
2022-09-24T20:21:19.329Z,95.70
2022-09-24T20:23:47.376Z,95.70
2022-09-24T20:26:34.988Z,95.70
2022-09-24T20:29:02.460Z,95.70
2022-09-24T20:31:29.955Z,95.70
2022-09-24T20:33:57.078Z,95.70
2022-09-24T20:36:25.452Z,95.70
2022-09-24T20:38:52.986Z,95.70
2022-09-24T20:41:23.182Z,95.70
2022-09-24T20:43:51.491Z,95.70
2022-09-24T20:46:28.001Z,95.70
2022-09-24T20:49:00.386Z,95.50
2022-09-24T20:51:33.823Z,95.40
2022-09-24T20:54:10.918Z,95.30
2022-09-24T20:56:40.454Z,95.30
2022-09-24T20:59:07.520Z,95.30
2022-09-24T21:01:34.283Z,95.30
2022-09-24T21:04:02.420Z,95.20
2022-09-24T21:06:29.823Z,95.20
2022-09-24T21:08:56.789Z,95.20
2022-09-24T21:11:26.458Z,95.20
2022-09-24T21:13:56.012Z,95.20
2022-09-24T21:16:25.115Z,95.10
2022-09-24T21:18:54.384Z,95.10
2022-09-24T21:21:26.936Z,94.90
2022-09-24T21:23:54.747Z,94.90
2022-09-24T21:26:23.461Z,94.80
2022-09-24T21:28:53.731Z,94.70
2022-09-24T21:31:22.860Z,94.60
2022-09-24T21:33:54.511Z,94.60
2022-09-24T21:36:24.273Z,94.60
2022-09-24T21:39:02.783Z,94.60
2022-09-24T21:41:32.163Z,94.50
2022-09-24T21:43:59.449Z,94.40
2022-09-24T21:46:27.908Z,94.40
2022-09-24T21:48:55.651Z,94.30
2022-09-24T21:51:23.208Z,94.30
2022-09-24T21:53:50.938Z,94.20
2022-09-24T21:56:18.908Z,94.10
2022-09-24T21:58:49.991Z,94.00
2022-09-24T22:01:29.964Z,94.00
2022-09-24T22:03:59.068Z,94.00
2022-09-24T22:06:28.883Z,93.90
2022-09-24T22:08:57.911Z,93.90
2022-09-24T22:11:27.283Z,93.90
2022-09-24T22:13:54.986Z,93.80
2022-09-24T22:16:21.749Z,93.70
2022-09-24T22:18:48.496Z,93.60
2022-09-24T22:21:15.443Z,93.50
2022-09-24T22:23:42.153Z,93.50
2022-09-24T22:26:09.904Z,93.50
2022-09-24T22:28:37.886Z,93.60
2022-09-24T22:31:11.207Z,93.60
2022-09-24T22:33:56.624Z,93.50
2022-09-24T22:36:23.544Z,93.50
2022-09-24T22:38:54.862Z,93.50
2022-09-24T22:41:21.803Z,93.50
2022-09-24T22:43:48.530Z,93.50
2022-09-24T22:46:16.498Z,93.50
2022-09-24T22:48:43.469Z,93.40
2022-09-24T22:51:10.355Z,93.40
2022-09-24T22:53:39.038Z,93.30
2022-09-24T22:56:14.289Z,93.20
2022-09-24T22:58:43.256Z,93.10
2022-09-24T23:01:31.949Z,93.10
2022-09-24T23:03:59.368Z,93.10
2022-09-24T23:06:26.499Z,93.20
2022-09-24T23:08:54.762Z,93.30
2022-09-24T23:11:32.567Z,93.50
2022-09-24T23:14:02.551Z,93.40
2022-09-24T23:16:31.653Z,93.40
2022-09-24T23:19:00.229Z,93.40
2022-09-24T23:21:28.653Z,93.50
2022-09-24T23:23:57.540Z,93.50
2022-09-24T23:26:25.608Z,93.50
2022-09-24T23:28:53.725Z,93.50
2022-09-24T23:31:25.269Z,93.50
2022-09-24T23:33:53.409Z,93.50
2022-09-24T23:36:20.273Z,93.40
2022-09-24T23:38:47.011Z,93.40
2022-09-24T23:41:14.387Z,93.30
2022-09-24T23:43:41.814Z,93.20
2022-09-24T23:46:09.705Z,93.20
2022-09-24T23:48:36.971Z,93.20
2022-09-24T23:51:04.754Z,93.10
2022-09-24T23:53:31.891Z,93.10
2022-09-24T23:55:59.004Z,93.10
2022-09-24T23:58:26.106Z,93.10
